createdAt,value
2023-03-29T00:03:19.767Z,24.66
2023-03-29T00:07:19.852Z,24.68
2023-03-29T00:11:20.021Z,24.68
2023-03-29T00:15:20.224Z,24.65
2023-03-29T00:19:20.381Z,24.63
2023-03-29T00:23:20.538Z,24.66
2023-03-29T00:27:20.729Z,24.63
2023-03-29T00:31:20.924Z,24.65
2023-03-29T00:35:21.104Z,24.66
2023-03-29T00:39:21.300Z,24.66
2023-03-29T00:43:21.386Z,24.63
2023-03-29T00:47:21.575Z,24.65
2023-03-29T00:51:21.785Z,24.65
2023-03-29T00:55:21.924Z,24.63
2023-03-29T00:59:22.075Z,24.60
2023-03-29T01:03:22.282Z,24.63
2023-03-29T01:07:22.410Z,24.63
2023-03-29T01:11:22.660Z,24.62
2023-03-29T01:15:22.814Z,24.60
2023-03-29T01:19:23.038Z,24.60
2023-03-29T01:23:23.207Z,24.60
2023-03-29T01:27:23.385Z,24.59
2023-03-29T01:31:23.662Z,24.59
2023-03-29T01:35:23.641Z,24.59
2023-03-29T01:39:23.542Z,24.59
2023-03-29T01:43:23.504Z,24.59
2023-03-29T01:47:23.516Z,24.56
2023-03-29T01:51:23.429Z,24.58
2023-03-29T01:55:23.382Z,24.56
2023-03-29T01:59:23.357Z,24.59
2023-03-29T02:03:23.363Z,24.58
2023-03-29T02:07:23.300Z,24.58
2023-03-29T02:11:23.274Z,24.56
2023-03-29T02:15:23.289Z,24.56
2023-03-29T02:19:23.276Z,24.56
2023-03-29T02:23:23.249Z,24.52
2023-03-29T02:27:23.162Z,24.52
2023-03-29T02:31:23.263Z,24.54
2023-03-29T02:35:23.086Z,24.51
2023-03-29T02:39:23.054Z,24.52
2023-03-29T02:43:25.277Z,24.51
2023-03-29T02:47:23.038Z,24.49
2023-03-29T02:51:22.981Z,24.49
2023-03-29T02:55:22.926Z,24.49
2023-03-29T02:59:22.887Z,24.49
2023-03-29T03:03:22.971Z,24.46
2023-03-29T03:07:22.820Z,24.48
2023-03-29T03:11:22.849Z,24.46
2023-03-29T03:15:22.776Z,24.45
2023-03-29T03:19:22.848Z,24.45
2023-03-29T03:23:22.785Z,24.43
2023-03-29T03:27:22.738Z,24.45
2023-03-29T03:31:22.698Z,24.43
2023-03-29T03:35:22.681Z,24.42
2023-03-29T03:39:22.643Z,24.42
2023-03-29T03:43:22.590Z,24.43
2023-03-29T03:47:22.587Z,24.43
2023-03-29T03:51:22.534Z,24.43
2023-03-29T03:55:22.497Z,24.40
2023-03-29T03:59:22.633Z,24.39
2023-03-29T04:03:22.755Z,24.42
2023-03-29T04:07:22.495Z,24.40
2023-03-29T04:11:22.468Z,24.40
2023-03-29T04:15:22.651Z,24.39
2023-03-29T04:19:22.411Z,24.38
2023-03-29T04:23:22.356Z,24.35
2023-03-29T04:27:22.352Z,24.35
2023-03-29T04:31:22.371Z,24.34
2023-03-29T04:35:22.285Z,24.35
2023-03-29T04:39:22.252Z,24.32
2023-03-29T04:43:22.166Z,24.34
2023-03-29T04:47:22.195Z,24.31
2023-03-29T04:51:22.190Z,24.32
2023-03-29T04:55:22.114Z,24.32
2023-03-29T04:59:22.083Z,24.34
2023-03-29T05:03:22.022Z,24.34
2023-03-29T05:07:21.996Z,24.36
2023-03-29T05:11:21.984Z,24.36
2023-03-29T05:15:21.935Z,24.38
2023-03-29T05:19:21.923Z,24.36
2023-03-29T05:23:21.832Z,24.36
2023-03-29T05:27:21.834Z,24.35
2023-03-29T05:31:21.939Z,24.36
2023-03-29T05:35:22.035Z,24.35
2023-03-29T05:39:22.039Z,24.36
2023-03-29T05:43:22.218Z,24.39
2023-03-29T05:47:21.937Z,24.43
2023-03-29T05:51:22.215Z,24.43
2023-03-29T05:55:21.879Z,24.56
2023-03-29T05:59:22.205Z,24.65
2023-03-29T06:03:22.244Z,24.75
2023-03-29T06:07:22.207Z,24.86
2023-03-29T06:11:21.692Z,24.94
2023-03-29T06:15:21.657Z,25.03
2023-03-29T06:19:21.687Z,25.11
2023-03-29T06:23:21.703Z,25.17
2023-03-29T06:27:21.805Z,25.27
2023-03-29T06:31:21.924Z,25.27
2023-03-29T06:35:22.027Z,25.09
2023-03-29T06:39:22.283Z,24.91
2023-03-29T06:43:22.477Z,24.82
2023-03-29T06:47:22.712Z,24.87
2023-03-29T06:51:23.431Z,24.96
2023-03-29T06:55:22.750Z,25.19
2023-03-29T06:59:22.338Z,25.37
2023-03-29T07:03:22.286Z,25.55
2023-03-29T07:07:22.777Z,25.72
2023-03-29T07:11:22.232Z,25.82
2023-03-29T07:15:22.265Z,25.89
2023-03-29T07:19:22.161Z,26.02
2023-03-29T07:23:22.200Z,26.12
2023-03-29T07:27:22.279Z,26.18
2023-03-29T07:31:22.730Z,26.24
2023-03-29T07:35:22.758Z,26.29
2023-03-29T07:39:22.705Z,26.36
2023-03-29T07:43:22.611Z,26.42
2023-03-29T07:47:29.758Z,26.32
2023-03-29T07:51:22.728Z,26.21
2023-03-29T07:55:22.603Z,26.06
2023-03-29T07:59:22.581Z,25.98
2023-03-29T08:03:22.622Z,25.88
2023-03-29T08:07:22.522Z,25.82
2023-03-29T08:11:22.506Z,25.75
2023-03-29T08:15:22.464Z,25.67
2023-03-29T08:19:22.482Z,25.62
2023-03-29T08:23:22.444Z,25.60
2023-03-29T08:27:22.453Z,25.54
2023-03-29T08:31:22.494Z,25.50
2023-03-29T08:35:22.424Z,25.45
2023-03-29T08:39:22.774Z,25.43
2023-03-29T08:43:22.527Z,25.44
2023-03-29T08:47:22.796Z,25.44
2023-03-29T08:51:22.761Z,25.50
2023-03-29T08:55:22.489Z,25.47
2023-03-29T08:59:22.492Z,25.50
2023-03-29T09:03:22.578Z,25.57
2023-03-29T09:07:25.309Z,25.57
2023-03-29T09:11:22.576Z,25.47
2023-03-29T09:15:22.493Z,25.44
2023-03-29T09:19:22.451Z,25.52
2023-03-29T09:23:22.787Z,25.61
2023-03-29T09:27:22.374Z,25.70
2023-03-29T09:31:22.884Z,25.78
2023-03-29T09:35:22.357Z,25.82
2023-03-29T09:39:22.791Z,25.91
2023-03-29T09:43:22.288Z,25.92
2023-03-29T09:47:22.426Z,26.01
2023-03-29T09:51:22.758Z,26.09
2023-03-29T09:55:22.712Z,26.11
2023-03-29T09:59:22.889Z,26.18
2023-03-29T10:03:22.932Z,26.25
2023-03-29T10:07:22.989Z,26.34
2023-03-29T10:11:23.368Z,26.42
2023-03-29T10:15:29.788Z,26.49
2023-03-29T10:19:23.996Z,26.55
2023-03-29T10:23:22.944Z,26.63
2023-03-29T10:27:22.935Z,26.70
2023-03-29T10:31:23.148Z,26.79
2023-03-29T10:35:23.294Z,26.85
2023-03-29T10:39:23.309Z,26.89
2023-03-29T10:43:22.764Z,26.89
2023-03-29T10:47:22.768Z,26.97
2023-03-29T10:51:22.713Z,27.01
2023-03-29T10:55:22.681Z,27.06
2023-03-29T10:59:22.656Z,27.06
2023-03-29T11:03:22.780Z,27.14
2023-03-29T11:07:22.592Z,27.15
2023-03-29T11:11:22.526Z,27.20
2023-03-29T11:15:22.817Z,27.23
2023-03-29T11:19:22.510Z,27.27
2023-03-29T11:23:22.472Z,27.31
2023-03-29T11:27:22.802Z,27.34
2023-03-29T11:31:22.841Z,27.34
2023-03-29T11:35:22.778Z,27.27
2023-03-29T11:39:22.904Z,27.21
2023-03-29T11:43:23.070Z,27.14
2023-03-29T11:47:23.253Z,27.07
2023-03-29T11:51:23.436Z,27.03
2023-03-29T11:55:23.678Z,26.94
2023-03-29T11:59:23.596Z,26.90
2023-03-29T12:03:23.670Z,26.87
2023-03-29T12:07:23.547Z,26.83
2023-03-29T12:11:23.531Z,26.83
2023-03-29T12:15:23.473Z,26.77
2023-03-29T12:19:23.466Z,26.76
2023-03-29T12:23:23.395Z,26.77
2023-03-29T12:27:23.418Z,26.80
2023-03-29T12:31:23.447Z,26.80
2023-03-29T12:35:23.427Z,26.80
2023-03-29T12:39:23.583Z,26.77
2023-03-29T12:43:23.780Z,26.75
2023-03-29T12:47:23.971Z,26.75
2023-03-29T12:51:24.133Z,26.75
2023-03-29T12:55:24.309Z,26.73
2023-03-29T12:59:24.429Z,26.73
2023-03-29T13:03:24.461Z,26.70
2023-03-29T13:07:24.421Z,26.69
2023-03-29T13:11:24.413Z,26.66
2023-03-29T13:15:24.407Z,26.59
2023-03-29T13:19:24.432Z,26.57
2023-03-29T13:23:24.472Z,26.50
2023-03-29T13:27:24.541Z,26.45
2023-03-29T13:31:24.656Z,26.42
2023-03-29T13:35:24.625Z,26.38
2023-03-29T13:39:24.736Z,26.34
2023-03-29T13:43:24.811Z,26.26
2023-03-29T13:47:24.985Z,26.22
2023-03-29T13:51:25.045Z,26.21
2023-03-29T13:55:25.159Z,26.16
2023-03-29T13:59:25.227Z,26.09
2023-03-29T14:03:25.399Z,26.11
2023-03-29T14:07:25.456Z,26.05
2023-03-29T14:11:25.612Z,26.04
2023-03-29T14:15:25.704Z,26.04
2023-03-29T14:19:25.919Z,26.02
2023-03-29T14:23:26.040Z,26.05
2023-03-29T14:27:26.147Z,26.02
2023-03-29T14:31:26.307Z,25.98
2023-03-29T14:35:26.488Z,25.98
2023-03-29T14:39:26.699Z,25.94
2023-03-29T14:43:26.908Z,25.92
2023-03-29T14:47:27.136Z,25.92
2023-03-29T14:51:27.499Z,25.89
2023-03-29T14:55:27.498Z,25.87
2023-03-29T14:59:27.676Z,25.87
2023-03-29T15:03:28.056Z,25.84
2023-03-29T15:07:27.824Z,25.81
2023-03-29T15:11:27.909Z,25.80
2023-03-29T15:15:27.832Z,25.78
2023-03-29T15:19:27.742Z,25.80
2023-03-29T15:23:27.705Z,25.77
2023-03-29T15:27:27.645Z,25.78
2023-03-29T15:31:27.666Z,25.80
2023-03-29T15:35:27.613Z,25.85
2023-03-29T15:39:27.577Z,25.89
2023-03-29T15:43:27.546Z,25.95
2023-03-29T15:47:27.672Z,25.96
2023-03-29T15:51:27.799Z,26.04
2023-03-29T15:55:27.945Z,26.04
2023-03-29T15:59:28.104Z,25.96
2023-03-29T16:03:28.309Z,25.96
2023-03-29T16:07:28.393Z,26.39
2023-03-29T16:11:28.488Z,26.36
2023-03-29T16:15:28.598Z,26.24
2023-03-29T16:19:28.743Z,26.15
2023-03-29T16:23:28.928Z,26.04
2023-03-29T16:27:29.158Z,25.98
2023-03-29T16:31:29.107Z,25.89
2023-03-29T16:35:29.123Z,25.82
2023-03-29T16:39:29.041Z,25.80
2023-03-29T16:43:29.019Z,25.77
2023-03-29T16:47:28.994Z,25.74
2023-03-29T16:51:28.918Z,25.72
2023-03-29T16:55:28.894Z,25.68
2023-03-29T16:59:28.881Z,25.67
2023-03-29T17:03:28.842Z,25.64
2023-03-29T17:07:28.784Z,25.64
2023-03-29T17:11:29.078Z,25.60
2023-03-29T17:15:28.768Z,25.60
2023-03-29T17:19:28.798Z,25.58
2023-03-29T17:23:28.803Z,25.55
2023-03-29T17:27:28.822Z,25.55
2023-03-29T17:31:28.963Z,25.52
2023-03-29T17:35:28.904Z,25.52
2023-03-29T17:39:28.830Z,25.51
2023-03-29T17:43:28.796Z,25.50
2023-03-29T17:47:28.793Z,25.48
2023-03-29T17:51:28.761Z,25.47
2023-03-29T17:55:28.751Z,25.45
2023-03-29T17:59:28.772Z,25.44
2023-03-29T18:03:28.787Z,25.44
2023-03-29T18:07:28.734Z,25.44
2023-03-29T18:11:28.754Z,25.43
2023-03-29T18:15:28.763Z,25.41
2023-03-29T18:19:28.764Z,25.43
2023-03-29T18:23:28.803Z,25.38
2023-03-29T18:27:28.779Z,25.37
2023-03-29T18:31:28.825Z,25.38
2023-03-29T18:35:28.888Z,25.37
2023-03-29T18:39:28.883Z,25.34
2023-03-29T18:43:28.973Z,25.36
2023-03-29T18:47:29.041Z,25.34
2023-03-29T18:51:29.072Z,25.34
2023-03-29T18:55:29.153Z,25.33
2023-03-29T18:59:29.244Z,25.33
2023-03-29T19:03:29.468Z,25.31
2023-03-29T19:07:29.437Z,25.29
2023-03-29T19:11:29.548Z,25.30
2023-03-29T19:15:29.652Z,25.26
2023-03-29T19:19:29.693Z,25.26
2023-03-29T19:23:29.810Z,25.26
2023-03-29T19:27:29.920Z,25.23
2023-03-29T19:31:30.108Z,25.23
2023-03-29T19:35:30.189Z,25.21
2023-03-29T19:39:30.194Z,25.20
2023-03-29T19:43:30.341Z,25.19
2023-03-29T19:47:30.445Z,25.20
2023-03-29T19:51:30.526Z,25.21
2023-03-29T19:55:30.702Z,25.19
2023-03-29T19:59:30.723Z,25.21
2023-03-29T20:03:30.830Z,25.19
2023-03-29T20:07:30.911Z,25.16
2023-03-29T20:11:31.053Z,25.19
2023-03-29T20:15:31.126Z,25.16
2023-03-29T20:19:31.226Z,25.16
2023-03-29T20:23:31.358Z,25.14
2023-03-29T20:27:31.450Z,25.14
2023-03-29T20:31:31.588Z,25.14
2023-03-29T20:35:31.694Z,25.11
2023-03-29T20:39:31.775Z,25.13
2023-03-29T20:43:31.875Z,25.14
2023-03-29T20:47:31.976Z,25.13
2023-03-29T20:51:32.993Z,25.11
2023-03-29T20:55:32.144Z,25.11
2023-03-29T20:59:32.224Z,25.13
2023-03-29T21:03:32.438Z,25.11
2023-03-29T21:07:32.475Z,25.11
2023-03-29T21:11:32.601Z,25.09
2023-03-29T21:15:32.796Z,25.07
2023-03-29T21:19:32.854Z,25.06
2023-03-29T21:23:33.002Z,25.09
2023-03-29T21:27:33.107Z,25.06
2023-03-29T21:31:33.307Z,25.05
2023-03-29T21:35:33.421Z,25.06
2023-03-29T21:39:33.545Z,25.03
2023-03-29T21:43:33.639Z,25.06
2023-03-29T21:47:33.832Z,25.05
2023-03-29T21:51:33.964Z,25.00
2023-03-29T21:55:34.115Z,25.02
2023-03-29T21:59:34.278Z,25.00
2023-03-29T22:03:34.467Z,25.00
2023-03-29T22:07:34.584Z,24.97
2023-03-29T22:11:34.791Z,24.96
2023-03-29T22:15:34.923Z,24.97
2023-03-29T22:19:35.085Z,24.97
2023-03-29T22:23:35.229Z,24.99
2023-03-29T22:27:35.360Z,24.97
2023-03-29T22:31:35.588Z,24.96
2023-03-29T22:35:35.704Z,24.97
2023-03-29T22:39:35.834Z,24.96
2023-03-29T22:43:35.976Z,24.93
2023-03-29T22:47:36.187Z,24.93
2023-03-29T22:51:36.312Z,24.94
2023-03-29T22:55:36.419Z,24.93
2023-03-29T22:59:36.601Z,24.91
2023-03-29T23:03:36.746Z,24.91
2023-03-29T23:07:36.839Z,24.89
2023-03-29T23:11:37.008Z,24.89
2023-03-29T23:15:37.157Z,24.90
2023-03-29T23:19:37.288Z,24.89
2023-03-29T23:23:37.428Z,24.89
2023-03-29T23:27:37.597Z,24.90
2023-03-29T23:31:37.819Z,24.86
2023-03-29T23:35:38.073Z,24.85
2023-03-29T23:39:38.091Z,24.83
2023-03-29T23:43:38.275Z,24.82
2023-03-29T23:47:38.452Z,24.82
2023-03-29T23:51:38.592Z,24.82
2023-03-29T23:55:38.742Z,24.82
2023-03-29T23:59:38.907Z,24.85
